Canton, Ohio
Current Conditions -  °F | °C
As of 2:51 PM on Wednesday 28 Jan 2015 (Local Time) from KCAK Reporting Station
Scattered Clouds Scattered Clouds  
Wind Chill: 17°   Ceiling: Unl
Heat Index: 24°   Visibility: 10mi
Dew Point: 10°   Wind: 6mph
Humidity: 55%   Direction: 220°SW
Pressure: 30.29"   Gusts: NA
Location:  40.8°N, 81.37°W
Report Text: KCAK 281951Z 22005KT 10SM SCT250 M04/M12 A3029 RMK AO2 SLP279 T10441122 $
Loading
Personal Weather Stations






























Interactive Weather Map New forecast layout! Learn more

10-Day Weather Forecast

Advertisements
Track Severe Weather on mobile